Marlboro, VT (05344)

1:20 PM EST on November 22, 2017 (GMT -0500)
Lower Lake Raponda Rd | | Change Station

Elev 1867 ft 42.87 °N, 72.82 °W | Updated 24 seconds ago

Rain
Rain
37.2 °F
Feels Like 37 °F
N
1.0
Wind Variable Wind from ESE

Today
High -- | Low -- °F
--% Chance of Precip.
Yesterday
High -- | Low -- °F
Precip. -- in
Pressure 29.91 in
Visibility 5.0 miles
Clouds Few 100 ft
Mostly Cloudy 4700 ft
Overcast 6000 ft
Windchill 37 °F
Dew Point 36 °F
Humidity 98%
Rainfall 0.02 in
Snow Depth Not available.
6:51 AM 4:22 PM
Waxing Crescent, 16% visible
METAR KEEN 221756Z AUTO 00000KT 5SM -RA BR FEW001 BKN047 OVC060 04/03 A2985 RMK AO2 SLP128 P0006 60010 T00390033 10039 21011 58015
Pressure 29.91 in
Visibility 5.0 miles
Clouds Few 100 ft
Mostly Cloudy 4700 ft
Overcast 6000 ft
Windchill 37 °F
Dew Point 36 °F
Humidity 98%
Rainfall 0.02 in
Snow Depth Not available.
6:51 AM 4:22 PM
Waxing Crescent, 16% visible
METAR KEEN 221756Z AUTO 00000KT 5SM -RA BR FEW001 BKN047 OVC060 04/03 A2985 RMK AO2 SLP128 P0006 60010 T00390033 10039 21011 58015

Get Severe Weather Alerts

Thanks for signing up!

Be on the lookout for a verification email in your inbox.

You'll start receiving the daily forecast at 6 AM.

×

10-Day Weather Forecast

Almanac

Astronomy

Nov. 22, 2017 Rise Set
Actual Time
Civil Twilight
Nautical Twilight
Astronomical Twilight
Moon
Length of Visible Light
Length of Day
Tomorrow will be .
, % of the Moon is Illuminated

Today's Extremes

State Highs State Lows

Community

WunderPhotos

Category 6

Welcome to Category 6. This is the collective home for Weather Underground's featured writeups by Dr. Jeff Masters (right), Bob Henson (left), Chris Burt, and other regular contributors.

Nearby

Air Quality

  Air Quality AQ Index Pollutant
Not available.

Snow Depth

Station Depth Elevation

Earthquake Activity

City Distance Mag. Time & Date
Minimum magnitude displayed is 2.5.

Coastal Water Temperatures

Place Temperature

Stations

Nearby Weather Stations

Station Location Temp. Windchill Dew Point Humidity Wind Precip. Elev Updated Type
                   

Watches & Warnings

There are currently no watches in effect.